createdAt,value
2019-04-23T00:00:56.381Z,1.90
2019-04-23T00:03:18.794Z,2.10
2019-04-23T00:08:45.712Z,1.90
2019-04-23T00:10:58.689Z,1.80
2019-04-23T00:13:21.342Z,2.10
2019-04-23T00:16:04.958Z,2.17
2019-04-23T00:18:37.316Z,2.17
2019-04-23T00:21:20.491Z,2.30
2019-04-23T00:24:03.050Z,2.10
2019-04-23T00:28:58.860Z,2.73
2019-04-23T00:33:56.888Z,2.03
2019-04-23T00:36:32.590Z,2.70
2019-04-23T00:38:54.447Z,2.60
2019-04-23T00:44:02.238Z,2.53
2019-04-23T00:46:34.997Z,2.20
2019-04-23T00:49:10.727Z,2.10
2019-04-23T00:51:38.263Z,1.87
2019-04-23T00:54:06.097Z,2.20
2019-04-23T00:56:55.432Z,2.27
2019-04-23T00:59:08.358Z,2.60
2019-04-23T01:01:49.636Z,2.37
2019-04-23T01:04:12.262Z,1.90
2019-04-23T01:06:46.182Z,2.53
2019-04-23T01:09:14.100Z,3.33
2019-04-23T01:11:46.543Z,2.50
2019-04-23T01:14:18.344Z,2.63
2019-04-23T01:16:45.380Z,2.70
2019-04-23T01:19:24.525Z,2.90
2019-04-23T01:21:34.917Z,2.50
2019-04-23T01:24:12.011Z,2.80
2019-04-23T01:27:35.719Z,2.20
2019-04-23T01:29:57.904Z,2.83
2019-04-23T01:32:26.826Z,2.33
2019-04-23T01:34:55.957Z,2.40
2019-04-23T01:37:26.857Z,2.37
2019-04-23T01:40:00.671Z,2.70
2019-04-23T01:42:35.898Z,2.50
2019-04-23T01:45:11.653Z,3.00
2019-04-23T01:47:33.614Z,3.27
2019-04-23T01:50:08.200Z,2.13
2019-04-23T01:52:38.036Z,2.83
2019-04-23T01:55:01.745Z,2.67
2019-04-23T01:57:44.211Z,3.77
2019-04-23T02:00:08.794Z,2.40
2019-04-23T02:02:45.139Z,2.87
2019-04-23T02:07:44.471Z,2.77
2019-04-23T02:10:17.059Z,3.10
2019-04-23T02:12:42.061Z,2.90
2019-04-23T02:17:48.331Z,2.70
2019-04-23T02:20:25.916Z,3.07
2019-04-23T02:22:58.653Z,2.90
2019-04-23T02:25:31.753Z,2.90
2019-04-23T02:28:03.169Z,3.23
2019-04-23T02:33:11.021Z,3.20
2019-04-23T02:38:20.833Z,3.23
2019-04-23T02:40:47.075Z,3.30
2019-04-23T02:43:12.998Z,3.27
2019-04-23T02:45:50.330Z,2.57
2019-04-23T02:48:24.927Z,3.70
2019-04-23T03:01:06.499Z,3.70
2019-04-23T03:03:25.176Z,3.67
2019-04-23T03:05:57.143Z,3.20
2019-04-23T03:08:26.727Z,3.40
2019-04-23T03:11:01.351Z,4.00
2019-04-23T03:13:34.924Z,3.70
2019-04-23T03:16:06.303Z,3.40
2019-04-23T03:24:11.557Z,3.60
2019-04-23T03:26:47.848Z,3.80
2019-04-23T03:29:16.853Z,4.10
2019-04-23T03:35:09.290Z,4.20
2019-04-23T03:38:55.961Z,4.27
2019-04-23T03:41:50.381Z,3.93
2019-04-23T03:44:14.129Z,4.10
2019-04-23T03:46:40.278Z,3.67
2019-04-23T03:49:09.602Z,4.37
2019-04-23T03:51:55.307Z,3.90
2019-04-23T03:57:08.700Z,4.13
2019-04-23T03:59:26.737Z,3.70
2019-04-23T04:04:33.462Z,4.20
2019-04-23T04:09:40.797Z,4.13
2019-04-23T04:11:54.870Z,4.07
2019-04-23T04:17:03.547Z,4.50
2019-04-23T04:24:36.962Z,4.47
2019-04-23T04:27:05.719Z,3.87
2019-04-23T04:32:31.600Z,4.27
2019-04-23T04:39:49.730Z,4.37
2019-04-23T04:42:11.973Z,4.50
2019-04-23T04:49:54.749Z,4.93
2019-04-23T04:52:34.997Z,4.23
2019-04-23T04:54:28.834Z,4.33
2019-04-23T05:00:01.721Z,4.77
2019-04-23T05:07:27.517Z,5.43
2019-04-23T05:09:56.934Z,4.20
2019-04-23T05:12:23.684Z,4.97
2019-04-23T05:17:41.773Z,5.20
2019-04-23T05:20:07.414Z,4.77
2019-04-23T05:22:45.105Z,5.47
2019-04-23T05:24:57.151Z,5.00
2019-04-23T05:27:37.292Z,4.70
2019-04-23T05:30:07.494Z,4.60
2019-04-23T05:32:45.172Z,5.40
2019-04-23T05:35:18.295Z,5.17
2019-04-23T05:37:50.323Z,5.50
2019-04-23T05:40:25.352Z,4.30
2019-04-23T05:45:31.815Z,4.77
2019-04-23T05:47:47.833Z,4.57
2019-04-23T05:50:18.717Z,5.67
2019-04-23T05:52:52.725Z,5.93
2019-04-23T05:55:13.640Z,4.70
2019-04-23T05:57:45.701Z,5.20
2019-04-23T06:00:28.739Z,5.03
2019-04-23T06:02:57.162Z,5.07
2019-04-23T06:05:30.960Z,4.87
2019-04-23T06:07:54.547Z,5.40
2019-04-23T06:10:30.543Z,5.60
2019-04-23T06:12:59.615Z,5.60
2019-04-23T06:15:26.709Z,4.90
2019-04-23T06:18:06.177Z,4.93
2019-04-23T06:20:38.413Z,5.07
2019-04-23T06:23:06.353Z,5.50
2019-04-23T06:25:51.037Z,5.50
2019-04-23T06:28:11.261Z,5.07
2019-04-23T06:30:40.797Z,5.43
2019-04-23T06:33:07.705Z,5.20
2019-04-23T06:35:41.670Z,5.70
2019-04-23T06:38:34.414Z,5.53
2019-04-23T06:40:43.568Z,5.70
2019-04-23T06:45:42.872Z,6.20
2019-04-23T06:48:22.291Z,5.30
2019-04-23T06:53:20.922Z,5.33
2019-04-23T06:55:55.420Z,5.70
2019-04-23T06:58:26.006Z,6.03
2019-04-23T07:00:59.166Z,5.37
2019-04-23T07:03:31.232Z,5.77
2019-04-23T07:06:19.185Z,5.90
2019-04-23T07:13:57.639Z,6.10
2019-04-23T07:21:18.039Z,6.00
2019-04-23T07:24:00.791Z,5.67
2019-04-23T07:26:29.887Z,5.67
2019-04-23T07:33:57.550Z,6.73
2019-04-23T07:36:30.895Z,6.37
2019-04-23T07:39:01.656Z,5.67
2019-04-23T07:41:40.592Z,5.93
2019-04-23T07:44:33.103Z,6.70
2019-04-23T07:47:11.258Z,5.80
2019-04-23T07:49:30.757Z,6.07
2019-04-23T07:52:11.086Z,6.00
2019-04-23T07:54:39.996Z,6.30
2019-04-23T07:57:18.778Z,6.23
2019-04-23T08:02:15.975Z,6.07
2019-04-23T08:04:42.577Z,5.47
2019-04-23T08:12:19.283Z,6.80
2019-04-23T08:14:48.244Z,6.80
2019-04-23T08:17:20.937Z,5.80
2019-04-23T08:20:07.442Z,7.27
2019-04-23T08:24:57.281Z,6.50
2019-04-23T08:27:24.164Z,6.50
2019-04-23T08:29:58.517Z,6.97
2019-04-23T08:35:04.353Z,6.17
2019-04-23T08:37:47.912Z,6.60
2019-04-23T08:40:04.811Z,5.87
2019-04-23T08:45:24.211Z,6.53
2019-04-23T08:48:01.262Z,5.67
2019-04-23T08:53:06.984Z,7.37
2019-04-23T08:57:55.496Z,6.80
2019-04-23T09:00:37.330Z,6.50
2019-04-23T09:03:11.122Z,6.00
2019-04-23T09:05:46.305Z,6.30
2019-04-23T09:13:48.937Z,6.00
2019-04-23T09:18:14.459Z,6.90
2019-04-23T09:20:43.225Z,7.07
2019-04-23T09:23:23.269Z,6.23
2019-04-23T09:28:31.089Z,6.20
2019-04-23T09:30:57.797Z,6.57
2019-04-23T09:33:45.495Z,7.43
2019-04-23T09:36:19.939Z,6.40
2019-04-23T09:39:00.484Z,5.90
2019-04-23T09:41:39.915Z,6.97
2019-04-23T09:47:00.378Z,6.63
2019-04-23T09:50:33.100Z,6.20
2019-04-23T09:52:02.529Z,6.00
2019-04-23T09:54:37.884Z,6.20
2019-04-23T09:56:58.836Z,6.90
2019-04-23T09:59:41.234Z,6.60
2019-04-23T10:01:57.764Z,6.87
2019-04-23T10:04:23.797Z,6.23
2019-04-23T10:06:55.296Z,6.60
2019-04-23T10:09:12.646Z,7.23
2019-04-23T10:11:43.198Z,7.20
2019-04-23T10:14:14.491Z,7.00
2019-04-23T10:16:45.239Z,6.53
2019-04-23T10:19:17.068Z,6.47
2019-04-23T10:21:47.000Z,6.63
2019-04-23T10:24:16.956Z,6.70
2019-04-23T10:26:48.024Z,6.83
2019-04-23T10:29:20.072Z,6.90
2019-04-23T10:31:49.552Z,6.53
2019-04-23T10:34:19.026Z,6.30
2019-04-23T10:36:49.519Z,6.13
2019-04-23T10:39:25.415Z,6.70
2019-04-23T10:41:52.527Z,5.80
2019-04-23T10:44:33.002Z,6.00
2019-04-23T10:47:30.489Z,6.73
2019-04-23T10:50:13.960Z,6.40
2019-04-23T10:52:30.735Z,6.70
2019-04-23T10:55:06.625Z,6.43
2019-04-23T10:57:31.278Z,6.33
2019-04-23T11:00:08.497Z,6.67
2019-04-23T11:05:35.950Z,6.53
2019-04-23T11:07:47.175Z,6.30
2019-04-23T11:13:07.842Z,6.40
2019-04-23T11:15:44.180Z,6.50
2019-04-23T11:17:59.344Z,6.13
2019-04-23T11:20:45.397Z,6.70
2019-04-23T11:22:58.887Z,6.27
2019-04-23T11:28:20.450Z,6.80
2019-04-23T11:30:41.519Z,6.20
2019-04-23T11:36:01.423Z,5.93
2019-04-23T11:40:49.081Z,6.30
2019-04-23T11:43:29.190Z,6.17
2019-04-23T11:46:10.544Z,6.00
2019-04-23T11:48:46.337Z,7.20
2019-04-23T11:53:34.233Z,6.20
2019-04-23T12:06:44.438Z,6.10
2019-04-23T12:09:17.423Z,6.57
2019-04-23T12:12:00.305Z,6.30
2019-04-23T12:14:42.207Z,6.40
2019-04-23T12:27:27.493Z,6.10
2019-04-23T12:29:53.864Z,6.20
2019-04-23T12:37:37.295Z,6.70
2019-04-23T12:40:06.105Z,6.80
2019-04-23T12:52:41.411Z,6.47
2019-04-23T12:55:15.235Z,6.60
2019-04-23T12:57:40.275Z,6.77
2019-04-23T13:00:17.330Z,7.27
2019-04-23T13:05:16.683Z,7.00
2019-04-23T13:07:52.191Z,6.63
2019-04-23T13:10:22.306Z,6.67
2019-04-23T13:15:22.737Z,6.87
2019-04-23T13:18:15.638Z,6.20
2019-04-23T13:20:23.193Z,6.23
2019-04-23T13:25:45.711Z,7.00
2019-04-23T13:30:46.667Z,6.40
2019-04-23T13:40:59.765Z,6.37
2019-04-23T13:43:31.793Z,7.20
2019-04-23T13:48:29.922Z,5.90
2019-04-23T13:51:19.807Z,6.30
2019-04-23T13:55:52.504Z,5.47
2019-04-23T13:58:38.690Z,5.83
2019-04-23T14:03:39.711Z,5.87
2019-04-23T14:06:19.852Z,6.53
2019-04-23T14:08:47.389Z,8.30
2019-04-23T14:11:21.643Z,6.80
2019-04-23T14:16:21.154Z,7.27
2019-04-23T14:21:20.429Z,6.50
2019-04-23T14:24:02.935Z,7.23
2019-04-23T14:28:59.602Z,7.50
2019-04-23T14:31:17.549Z,7.00
2019-04-23T14:34:05.066Z,7.10
2019-04-23T14:41:23.521Z,6.27
2019-04-23T14:44:00.699Z,7.40
2019-04-23T14:54:23.218Z,6.73
2019-04-23T14:56:56.835Z,6.70
2019-04-23T15:04:05.287Z,7.57
2019-04-23T15:06:44.944Z,6.70
2019-04-23T15:11:52.720Z,7.10
2019-04-23T15:14:10.115Z,6.23
2019-04-23T15:16:43.119Z,7.50
2019-04-23T15:19:28.496Z,6.73
2019-04-23T15:24:35.134Z,7.37
2019-04-23T15:29:09.325Z,12.70
2019-04-23T15:34:23.990Z,7.33
2019-04-23T15:37:15.535Z,6.40
2019-04-23T15:39:38.730Z,6.23
2019-04-23T15:42:16.676Z,6.47
2019-04-23T15:44:23.195Z,7.00
2019-04-23T15:47:12.085Z,6.63
2019-04-23T15:49:35.316Z,9.27
2019-04-23T15:52:10.641Z,8.10
2019-04-23T15:54:56.471Z,6.60
2019-04-23T15:57:07.208Z,6.10
2019-04-23T15:59:40.866Z,6.20
2019-04-23T16:01:44.034Z,5.97
2019-04-23T16:04:16.856Z,6.00
2019-04-23T16:06:45.675Z,5.50
2019-04-23T16:09:46.161Z,6.00
2019-04-23T16:12:12.567Z,6.40
2019-04-23T16:14:49.702Z,6.90
2019-04-23T16:17:21.225Z,5.90
2019-04-23T16:20:16.814Z,5.93
2019-04-23T16:27:45.788Z,6.17
2019-04-23T16:30:34.739Z,6.10
2019-04-23T16:33:05.577Z,6.80
2019-04-23T16:35:43.391Z,5.90
2019-04-23T16:38:14.417Z,7.10
2019-04-23T16:40:34.816Z,6.37
2019-04-23T16:43:16.367Z,5.57
2019-04-23T16:45:31.291Z,6.67
2019-04-23T16:48:15.686Z,6.37
2019-04-23T16:50:57.472Z,6.40
2019-04-23T16:58:23.274Z,6.23
2019-04-23T17:00:51.546Z,6.83
2019-04-23T17:03:26.490Z,6.13
2019-04-23T17:05:51.493Z,6.90
2019-04-23T17:11:06.732Z,5.87
2019-04-23T17:13:20.102Z,6.80
2019-04-23T17:16:04.416Z,6.97
2019-04-23T17:18:26.206Z,6.47
2019-04-23T17:20:53.066Z,6.93
2019-04-23T17:23:31.231Z,6.70
2019-04-23T17:25:59.265Z,7.07
2019-04-23T17:31:20.792Z,6.30
2019-04-23T17:33:35.546Z,6.70
2019-04-23T17:36:28.518Z,7.23
2019-04-23T17:38:52.991Z,6.43
2019-04-23T17:41:27.571Z,6.50
2019-04-23T17:46:22.059Z,7.07
2019-04-23T17:48:52.137Z,7.13
2019-04-23T17:51:22.493Z,6.70
2019-04-23T17:53:54.526Z,6.60
2019-04-23T17:58:58.615Z,7.27
2019-04-23T18:04:20.740Z,6.30
2019-04-23T18:06:53.889Z,7.10
2019-04-23T18:11:52.614Z,7.33
2019-04-23T18:14:08.511Z,6.37
2019-04-23T18:19:12.709Z,6.77
2019-04-23T18:24:23.187Z,6.37
2019-04-23T18:27:07.752Z,8.50
2019-04-23T18:29:42.272Z,7.47
2019-04-23T18:32:16.317Z,6.53
2019-04-23T18:35:06.612Z,6.37
2019-04-23T18:37:19.322Z,7.10
2019-04-23T18:42:25.802Z,6.80
2019-04-23T18:44:50.210Z,7.33
2019-04-23T18:47:24.821Z,7.20
2019-04-23T18:49:59.845Z,6.73
2019-04-23T18:54:47.991Z,7.70
2019-04-23T18:57:18.399Z,7.03
2019-04-23T19:00:03.362Z,7.07
2019-04-23T19:02:35.420Z,7.20
2019-04-23T19:05:14.867Z,7.50
2019-04-23T19:13:07.669Z,7.23
2019-04-23T19:15:40.658Z,6.50
2019-04-23T19:25:38.792Z,7.57
2019-04-23T19:28:30.267Z,7.27
2019-04-23T19:33:25.349Z,6.93
2019-04-23T19:38:21.327Z,7.53
2019-04-23T19:43:25.304Z,8.60
2019-04-23T19:46:09.647Z,7.80
2019-04-23T19:48:27.111Z,8.10
2019-04-23T19:51:02.651Z,7.00
2019-04-23T19:53:43.119Z,6.67
2019-04-23T19:56:08.909Z,6.43
2019-04-23T19:58:44.933Z,7.77
2019-04-23T20:03:41.374Z,7.20
2019-04-23T20:11:04.525Z,6.87
2019-04-23T20:13:45.689Z,6.80
2019-04-23T20:16:10.882Z,6.30
2019-04-23T20:21:03.205Z,5.70
2019-04-23T20:29:03.434Z,7.17
2019-04-23T20:34:01.838Z,6.50
2019-04-23T20:36:36.469Z,7.57
2019-04-23T20:38:59.673Z,5.93
2019-04-23T20:41:42.435Z,7.13
2019-04-23T20:44:03.786Z,6.50
2019-04-23T20:46:33.396Z,6.67
2019-04-23T20:49:00.870Z,6.87
2019-04-23T20:51:34.089Z,7.90
2019-04-23T20:54:02.307Z,6.67
2019-04-23T20:56:47.757Z,7.47
2019-04-23T20:59:06.212Z,6.93
2019-04-23T21:01:48.162Z,7.33
2019-04-23T21:04:37.829Z,7.43
2019-04-23T21:06:48.825Z,7.50
2019-04-23T21:11:47.985Z,7.20
2019-04-23T21:14:26.768Z,7.30
2019-04-23T21:16:58.300Z,7.73
2019-04-23T21:19:25.503Z,7.40
2019-04-23T21:22:09.855Z,6.53
2019-04-23T21:24:42.719Z,7.50
2019-04-23T21:27:18.154Z,7.60
2019-04-23T21:29:53.619Z,8.20
2019-04-23T21:32:13.371Z,7.80
2019-04-23T21:34:56.135Z,8.03
2019-04-23T21:37:23.481Z,8.00
2019-04-23T21:40:19.196Z,7.20
2019-04-23T21:42:48.973Z,7.17
2019-04-23T21:45:13.993Z,8.03
2019-04-23T21:47:51.653Z,7.10
2019-04-23T21:50:28.401Z,6.83
2019-04-23T21:52:51.058Z,7.00
2019-04-23T21:55:22.370Z,6.87
2019-04-23T21:58:08.227Z,6.67
2019-04-23T22:00:14.262Z,6.87
2019-04-23T22:05:25.382Z,7.20
2019-04-23T22:07:56.691Z,7.47
2019-04-23T22:10:25.770Z,7.03
2019-04-23T22:15:34.570Z,7.03
2019-04-23T22:17:59.924Z,7.50
2019-04-23T22:25:44.254Z,8.20
2019-04-23T22:28:10.320Z,7.37
2019-04-23T22:30:55.028Z,7.30
2019-04-23T22:35:48.267Z,7.63
2019-04-23T22:38:18.749Z,6.90
2019-04-23T22:40:42.813Z,6.70
2019-04-23T22:43:37.731Z,7.30
2019-04-23T22:48:15.011Z,7.40
2019-04-23T22:51:06.614Z,7.30
2019-04-23T22:53:20.079Z,7.77
2019-04-23T22:56:03.570Z,6.73
2019-04-23T22:58:27.608Z,7.67
2019-04-23T23:01:05.404Z,7.20
2019-04-23T23:06:10.744Z,7.13
2019-04-23T23:11:06.792Z,7.77
2019-04-23T23:16:23.244Z,8.10
2019-04-23T23:18:57.176Z,6.87
2019-04-23T23:23:40.247Z,7.50
2019-04-23T23:26:14.253Z,6.90
2019-04-23T23:28:44.646Z,7.60
2019-04-23T23:31:11.639Z,7.50
2019-04-23T23:33:50.692Z,7.80
2019-04-23T23:43:59.631Z,7.40
2019-04-23T23:46:27.897Z,6.80
2019-04-23T23:51:21.867Z,8.07
2019-04-23T23:56:20.574Z,7.30
2019-04-23T23:59:03.864Z,7.97
